sensor_id;sensor_type;location;lat;lon;timestamp;P1;durP1;ratioP1;P2;durP2;ratioP2
39020;SDS011;25188;51.958;5.842;2022-10-30T00:00:33;12.73;;;6.05;;
39020;SDS011;25188;51.958;5.842;2022-10-30T00:02:59;14.05;;;7.00;;
39020;SDS011;25188;51.958;5.842;2022-10-30T00:05:24;13.65;;;6.10;;
39020;SDS011;25188;51.958;5.842;2022-10-30T00:07:50;12.02;;;5.20;;
39020;SDS011;25188;51.958;5.842;2022-10-30T00:10:16;21.27;;;8.07;;
39020;SDS011;25188;51.958;5.842;2022-10-30T00:12:42;13.43;;;7.30;;
39020;SDS011;25188;51.958;5.842;2022-10-30T00:15:09;15.65;;;6.25;;
39020;SDS011;25188;51.958;5.842;2022-10-30T00:17:35;14.23;;;6.07;;
39020;SDS011;25188;51.958;5.842;2022-10-30T00:20:00;11.48;;;6.07;;
39020;SDS011;25188;51.958;5.842;2022-10-30T00:22:26;12.02;;;6.03;;
39020;SDS011;25188;51.958;5.842;2022-10-30T00:24:52;13.57;;;6.70;;
39020;SDS011;25188;51.958;5.842;2022-10-30T00:27:18;17.58;;;7.13;;
39020;SDS011;25188;51.958;5.842;2022-10-30T00:29:44;12.75;;;5.30;;
39020;SDS011;25188;51.958;5.842;2022-10-30T00:32:10;15.90;;;6.25;;
39020;SDS011;25188;51.958;5.842;2022-10-30T00:34:35;15.38;;;6.68;;
39020;SDS011;25188;51.958;5.842;2022-10-30T00:37:01;20.15;;;7.40;;
39020;SDS011;25188;51.958;5.842;2022-10-30T00:39:27;13.48;;;6.43;;
39020;SDS011;25188;51.958;5.842;2022-10-30T00:41:52;18.27;;;6.93;;
39020;SDS011;25188;51.958;5.842;2022-10-30T00:44:35;15.32;;;6.72;;
39020;SDS011;25188;51.958;5.842;2022-10-30T00:47:05;13.30;;;6.10;;
39020;SDS011;25188;51.958;5.842;2022-10-30T00:49:37;16.23;;;7.50;;
39020;SDS011;25188;51.958;5.842;2022-10-30T00:52:16;15.93;;;6.95;;
39020;SDS011;25188;51.958;5.842;2022-10-30T00:54:44;13.85;;;6.55;;
39020;SDS011;25188;51.958;5.842;2022-10-30T00:57:10;17.63;;;7.18;;
39020;SDS011;25188;51.958;5.842;2022-10-30T00:59:36;20.08;;;7.90;;
39020;SDS011;25188;51.958;5.842;2022-10-30T01:02:02;15.52;;;6.45;;
39020;SDS011;25188;51.958;5.842;2022-10-30T01:04:29;18.20;;;7.55;;
39020;SDS011;25188;51.958;5.842;2022-10-30T01:06:58;13.13;;;6.63;;
39020;SDS011;25188;51.958;5.842;2022-10-30T01:09:29;15.65;;;7.53;;
39020;SDS011;25188;51.958;5.842;2022-10-30T01:11:55;16.48;;;6.82;;
39020;SDS011;25188;51.958;5.842;2022-10-30T01:14:22;14.10;;;7.32;;
39020;SDS011;25188;51.958;5.842;2022-10-30T01:19:21;13.52;;;6.93;;
39020;SDS011;25188;51.958;5.842;2022-10-30T01:24:45;15.13;;;6.82;;
39020;SDS011;25188;51.958;5.842;2022-10-30T01:27:31;14.38;;;7.00;;
39020;SDS011;25188;51.958;5.842;2022-10-30T01:30:13;13.15;;;6.95;;
39020;SDS011;25188;51.958;5.842;2022-10-30T01:33:18;10.75;;;6.70;;
39020;SDS011;25188;51.958;5.842;2022-10-30T01:36:08;13.18;;;6.53;;
39020;SDS011;25188;51.958;5.842;2022-10-30T01:38:52;12.43;;;6.88;;
39020;SDS011;25188;51.958;5.842;2022-10-30T01:41:21;13.57;;;7.07;;
39020;SDS011;25188;51.958;5.842;2022-10-30T01:43:47;12.88;;;6.55;;
39020;SDS011;25188;51.958;5.842;2022-10-30T01:52:10;15.35;;;6.82;;
39020;SDS011;25188;51.958;5.842;2022-10-30T02:00:15;15.20;;;7.72;;
39020;SDS011;25188;51.958;5.842;2022-10-30T02:02:44;16.05;;;7.28;;
39020;SDS011;25188;51.958;5.842;2022-10-30T02:05:10;15.18;;;7.07;;
39020;SDS011;25188;51.958;5.842;2022-10-30T02:07:43;15.23;;;7.30;;
39020;SDS011;25188;51.958;5.842;2022-10-30T02:10:09;13.00;;;7.30;;
39020;SDS011;25188;51.958;5.842;2022-10-30T02:12:36;16.63;;;7.05;;
39020;SDS011;25188;51.958;5.842;2022-10-30T02:15:02;15.60;;;7.47;;
39020;SDS011;25188;51.958;5.842;2022-10-30T02:17:27;18.48;;;7.78;;
39020;SDS011;25188;51.958;5.842;2022-10-30T02:19:53;15.82;;;7.43;;
39020;SDS011;25188;51.958;5.842;2022-10-30T02:22:19;15.43;;;8.10;;
39020;SDS011;25188;51.958;5.842;2022-10-30T02:24:45;14.85;;;7.72;;
39020;SDS011;25188;51.958;5.842;2022-10-30T02:27:11;16.73;;;7.65;;
39020;SDS011;25188;51.958;5.842;2022-10-30T02:29:37;17.27;;;7.13;;
39020;SDS011;25188;51.958;5.842;2022-10-30T02:32:02;14.70;;;7.35;;
39020;SDS011;25188;51.958;5.842;2022-10-30T02:34:28;16.23;;;7.28;;
39020;SDS011;25188;51.958;5.842;2022-10-30T02:36:54;21.63;;;8.23;;
39020;SDS011;25188;51.958;5.842;2022-10-30T02:39:19;19.63;;;7.65;;
39020;SDS011;25188;51.958;5.842;2022-10-30T02:41:45;14.68;;;7.65;;
39020;SDS011;25188;51.958;5.842;2022-10-30T02:44:12;15.18;;;7.53;;
39020;SDS011;25188;51.958;5.842;2022-10-30T02:46:38;14.55;;;7.60;;
39020;SDS011;25188;51.958;5.842;2022-10-30T02:49:03;11.65;;;6.90;;
39020;SDS011;25188;51.958;5.842;2022-10-30T02:51:29;14.77;;;7.43;;
39020;SDS011;25188;51.958;5.842;2022-10-30T02:53:56;13.05;;;7.38;;
39020;SDS011;25188;51.958;5.842;2022-10-30T02:56:23;16.67;;;7.70;;
39020;SDS011;25188;51.958;5.842;2022-10-30T02:58:48;16.70;;;7.93;;
39020;SDS011;25188;51.958;5.842;2022-10-30T03:01:15;22.13;;;8.60;;
39020;SDS011;25188;51.958;5.842;2022-10-30T03:03:43;13.88;;;7.85;;
39020;SDS011;25188;51.958;5.842;2022-10-30T03:06:10;16.30;;;7.85;;
39020;SDS011;25188;51.958;5.842;2022-10-30T03:08:39;16.35;;;7.80;;
39020;SDS011;25188;51.958;5.842;2022-10-30T03:11:12;16.13;;;8.95;;
39020;SDS011;25188;51.958;5.842;2022-10-30T03:13:40;16.27;;;7.63;;
39020;SDS011;25188;51.958;5.842;2022-10-30T03:16:08;13.80;;;7.55;;
39020;SDS011;25188;51.958;5.842;2022-10-30T03:18:36;19.52;;;7.28;;
39020;SDS011;25188;51.958;5.842;2022-10-30T03:21:03;21.75;;;8.13;;
39020;SDS011;25188;51.958;5.842;2022-10-30T03:23:31;13.25;;;7.32;;
39020;SDS011;25188;51.958;5.842;2022-10-30T03:25:57;16.42;;;7.63;;
39020;SDS011;25188;51.958;5.842;2022-10-30T03:28:24;14.25;;;7.90;;
39020;SDS011;25188;51.958;5.842;2022-10-30T03:30:56;13.98;;;7.53;;
39020;SDS011;25188;51.958;5.842;2022-10-30T03:33:23;15.73;;;8.07;;
39020;SDS011;25188;51.958;5.842;2022-10-30T03:35:49;13.02;;;6.97;;
39020;SDS011;25188;51.958;5.842;2022-10-30T03:38:15;14.40;;;7.03;;
39020;SDS011;25188;51.958;5.842;2022-10-30T03:40:40;13.73;;;6.60;;
39020;SDS011;25188;51.958;5.842;2022-10-30T03:43:06;12.50;;;7.15;;
39020;SDS011;25188;51.958;5.842;2022-10-30T03:45:32;15.90;;;7.43;;
39020;SDS011;25188;51.958;5.842;2022-10-30T03:48:02;13.75;;;7.55;;
39020;SDS011;25188;51.958;5.842;2022-10-30T03:50:29;14.68;;;7.80;;
39020;SDS011;25188;51.958;5.842;2022-10-30T03:52:55;16.40;;;7.93;;
39020;SDS011;25188;51.958;5.842;2022-10-30T03:55:22;16.00;;;8.00;;
39020;SDS011;25188;51.958;5.842;2022-10-30T03:57:48;15.35;;;7.35;;
39020;SDS011;25188;51.958;5.842;2022-10-30T04:00:14;13.43;;;7.22;;
39020;SDS011;25188;51.958;5.842;2022-10-30T04:02:45;16.85;;;6.95;;
39020;SDS011;25188;51.958;5.842;2022-10-30T04:05:11;14.38;;;7.30;;
39020;SDS011;25188;51.958;5.842;2022-10-30T04:07:37;12.00;;;6.57;;
39020;SDS011;25188;51.958;5.842;2022-10-30T04:10:03;13.50;;;6.88;;
39020;SDS011;25188;51.958;5.842;2022-10-30T04:12:29;12.88;;;7.30;;
39020;SDS011;25188;51.958;5.842;2022-10-30T04:14:54;16.38;;;7.03;;
39020;SDS011;25188;51.958;5.842;2022-10-30T04:17:21;15.48;;;6.93;;
39020;SDS011;25188;51.958;5.842;2022-10-30T04:19:46;13.13;;;6.05;;
39020;SDS011;25188;51.958;5.842;2022-10-30T04:22:12;13.52;;;6.35;;
39020;SDS011;25188;51.958;5.842;2022-10-30T04:24:37;13.25;;;6.60;;
39020;SDS011;25188;51.958;5.842;2022-10-30T04:27:03;11.95;;;6.97;;
39020;SDS011;25188;51.958;5.842;2022-10-30T04:29:29;12.90;;;7.18;;
39020;SDS011;25188;51.958;5.842;2022-10-30T04:31:55;11.95;;;6.30;;
39020;SDS011;25188;51.958;5.842;2022-10-30T04:34:21;11.95;;;6.70;;
39020;SDS011;25188;51.958;5.842;2022-10-30T04:36:47;15.30;;;6.72;;
39020;SDS011;25188;51.958;5.842;2022-10-30T04:39:12;17.27;;;6.85;;
39020;SDS011;25188;51.958;5.842;2022-10-30T04:41:38;11.68;;;7.25;;
39020;SDS011;25188;51.958;5.842;2022-10-30T04:44:04;12.30;;;7.20;;
39020;SDS011;25188;51.958;5.842;2022-10-30T04:46:32;13.05;;;7.38;;
39020;SDS011;25188;51.958;5.842;2022-10-30T04:48:58;13.40;;;7.35;;
39020;SDS011;25188;51.958;5.842;2022-10-30T04:51:24;16.75;;;7.05;;
39020;SDS011;25188;51.958;5.842;2022-10-30T04:53:50;15.43;;;6.75;;
39020;SDS011;25188;51.958;5.842;2022-10-30T04:56:15;15.70;;;7.82;;
39020;SDS011;25188;51.958;5.842;2022-10-30T04:58:41;14.43;;;7.35;;
39020;SDS011;25188;51.958;5.842;2022-10-30T05:01:07;15.48;;;7.63;;
39020;SDS011;25188;51.958;5.842;2022-10-30T05:03:33;12.10;;;6.28;;
39020;SDS011;25188;51.958;5.842;2022-10-30T05:06:02;13.00;;;7.43;;
39020;SDS011;25188;51.958;5.842;2022-10-30T05:08:39;14.73;;;7.78;;
39020;SDS011;25188;51.958;5.842;2022-10-30T05:11:05;16.02;;;7.15;;
39020;SDS011;25188;51.958;5.842;2022-10-30T05:13:30;17.65;;;7.90;;
39020;SDS011;25188;51.958;5.842;2022-10-30T05:15:56;14.60;;;8.25;;
39020;SDS011;25188;51.958;5.842;2022-10-30T05:18:22;13.73;;;7.53;;
39020;SDS011;25188;51.958;5.842;2022-10-30T05:20:48;18.13;;;7.22;;
39020;SDS011;25188;51.958;5.842;2022-10-30T05:23:13;11.75;;;7.45;;
39020;SDS011;25188;51.958;5.842;2022-10-30T05:25:39;14.88;;;7.60;;
39020;SDS011;25188;51.958;5.842;2022-10-30T05:28:05;13.85;;;7.78;;
39020;SDS011;25188;51.958;5.842;2022-10-30T05:30:32;14.27;;;8.20;;
39020;SDS011;25188;51.958;5.842;2022-10-30T05:32:59;17.52;;;8.07;;
39020;SDS011;25188;51.958;5.842;2022-10-30T05:35:26;16.45;;;7.97;;
39020;SDS011;25188;51.958;5.842;2022-10-30T05:37:52;16.00;;;7.70;;
39020;SDS011;25188;51.958;5.842;2022-10-30T05:40:18;13.85;;;7.85;;
39020;SDS011;25188;51.958;5.842;2022-10-30T05:42:45;16.75;;;7.85;;
39020;SDS011;25188;51.958;5.842;2022-10-30T05:45:11;15.05;;;7.85;;
39020;SDS011;25188;51.958;5.842;2022-10-30T05:47:37;13.93;;;7.43;;
39020;SDS011;25188;51.958;5.842;2022-10-30T05:50:03;16.92;;;7.50;;
39020;SDS011;25188;51.958;5.842;2022-10-30T05:52:29;13.60;;;7.38;;
39020;SDS011;25188;51.958;5.842;2022-10-30T05:54:55;12.38;;;6.65;;
39020;SDS011;25188;51.958;5.842;2022-10-30T05:57:20;9.75;;;6.32;;
39020;SDS011;25188;51.958;5.842;2022-10-30T05:59:46;12.70;;;6.38;;
39020;SDS011;25188;51.958;5.842;2022-10-30T06:02:12;12.32;;;6.40;;
39020;SDS011;25188;51.958;5.842;2022-10-30T06:04:37;11.70;;;6.80;;
39020;SDS011;25188;51.958;5.842;2022-10-30T06:07:03;14.50;;;7.45;;
39020;SDS011;25188;51.958;5.842;2022-10-30T06:09:29;12.07;;;6.10;;
39020;SDS011;25188;51.958;5.842;2022-10-30T06:11:54;12.52;;;7.10;;
39020;SDS011;25188;51.958;5.842;2022-10-30T06:14:20;16.35;;;7.82;;
39020;SDS011;25188;51.958;5.842;2022-10-30T06:16:46;16.25;;;7.38;;
39020;SDS011;25188;51.958;5.842;2022-10-30T06:19:12;12.15;;;7.43;;
39020;SDS011;25188;51.958;5.842;2022-10-30T06:21:37;14.23;;;7.28;;
39020;SDS011;25188;51.958;5.842;2022-10-30T06:24:03;13.52;;;7.68;;
39020;SDS011;25188;51.958;5.842;2022-10-30T06:26:29;13.82;;;7.03;;
39020;SDS011;25188;51.958;5.842;2022-10-30T06:28:54;14.85;;;7.43;;
39020;SDS011;25188;51.958;5.842;2022-10-30T06:31:20;15.13;;;8.95;;
39020;SDS011;25188;51.958;5.842;2022-10-30T06:33:46;11.57;;;7.47;;
39020;SDS011;25188;51.958;5.842;2022-10-30T06:36:11;16.05;;;7.93;;
39020;SDS011;25188;51.958;5.842;2022-10-30T06:38:37;18.13;;;7.57;;
39020;SDS011;25188;51.958;5.842;2022-10-30T06:41:03;15.88;;;8.35;;
39020;SDS011;25188;51.958;5.842;2022-10-30T06:43:28;20.00;;;9.27;;
39020;SDS011;25188;51.958;5.842;2022-10-30T06:45:56;14.02;;;8.00;;
39020;SDS011;25188;51.958;5.842;2022-10-30T06:48:22;14.95;;;8.23;;
39020;SDS011;25188;51.958;5.842;2022-10-30T06:50:52;18.45;;;8.85;;
39020;SDS011;25188;51.958;5.842;2022-10-30T06:53:22;16.15;;;8.68;;
39020;SDS011;25188;51.958;5.842;2022-10-30T06:55:55;14.35;;;8.52;;
39020;SDS011;25188;51.958;5.842;2022-10-30T06:58:22;15.73;;;8.68;;
39020;SDS011;25188;51.958;5.842;2022-10-30T07:00:48;18.08;;;9.85;;
39020;SDS011;25188;51.958;5.842;2022-10-30T07:03:13;17.00;;;8.88;;
39020;SDS011;25188;51.958;5.842;2022-10-30T07:05:39;14.77;;;8.77;;
39020;SDS011;25188;51.958;5.842;2022-10-30T07:08:05;18.33;;;8.85;;
39020;SDS011;25188;51.958;5.842;2022-10-30T07:10:30;14.85;;;8.30;;
39020;SDS011;25188;51.958;5.842;2022-10-30T07:12:56;20.85;;;9.95;;
39020;SDS011;25188;51.958;5.842;2022-10-30T07:15:22;15.48;;;8.55;;
39020;SDS011;25188;51.958;5.842;2022-10-30T07:17:55;17.38;;;9.20;;
39020;SDS011;25188;51.958;5.842;2022-10-30T07:20:26;15.75;;;9.20;;
39020;SDS011;25188;51.958;5.842;2022-10-30T07:22:55;16.58;;;9.55;;
39020;SDS011;25188;51.958;5.842;2022-10-30T07:25:20;18.27;;;9.45;;
39020;SDS011;25188;51.958;5.842;2022-10-30T07:27:47;15.32;;;9.40;;
39020;SDS011;25188;51.958;5.842;2022-10-30T07:30:15;18.80;;;9.52;;
39020;SDS011;25188;51.958;5.842;2022-10-30T07:32:42;14.93;;;8.88;;
39020;SDS011;25188;51.958;5.842;2022-10-30T07:35:08;18.58;;;9.68;;
39020;SDS011;25188;51.958;5.842;2022-10-30T07:37:35;18.33;;;8.88;;
39020;SDS011;25188;51.958;5.842;2022-10-30T07:40:01;17.55;;;8.07;;
39020;SDS011;25188;51.958;5.842;2022-10-30T07:42:26;19.95;;;8.43;;
39020;SDS011;25188;51.958;5.842;2022-10-30T07:44:52;19.25;;;9.10;;
39020;SDS011;25188;51.958;5.842;2022-10-30T07:47:17;17.25;;;8.98;;
39020;SDS011;25188;51.958;5.842;2022-10-30T07:49:43;15.75;;;8.10;;
39020;SDS011;25188;51.958;5.842;2022-10-30T07:52:09;14.75;;;8.18;;
39020;SDS011;25188;51.958;5.842;2022-10-30T07:54:34;16.80;;;8.15;;
39020;SDS011;25188;51.958;5.842;2022-10-30T07:57:00;16.83;;;9.02;;
39020;SDS011;25188;51.958;5.842;2022-10-30T07:59:27;18.40;;;8.85;;
39020;SDS011;25188;51.958;5.842;2022-10-30T08:01:52;15.82;;;9.23;;
39020;SDS011;25188;51.958;5.842;2022-10-30T08:04:18;17.20;;;8.52;;
39020;SDS011;25188;51.958;5.842;2022-10-30T08:06:44;14.95;;;8.48;;
39020;SDS011;25188;51.958;5.842;2022-10-30T08:09:09;12.90;;;7.70;;
39020;SDS011;25188;51.958;5.842;2022-10-30T08:11:35;15.05;;;8.50;;
39020;SDS011;25188;51.958;5.842;2022-10-30T08:14:00;24.98;;;8.90;;
39020;SDS011;25188;51.958;5.842;2022-10-30T08:16:26;14.25;;;8.50;;
39020;SDS011;25188;51.958;5.842;2022-10-30T08:18:52;17.27;;;9.48;;
39020;SDS011;25188;51.958;5.842;2022-10-30T08:21:18;18.15;;;9.23;;
39020;SDS011;25188;51.958;5.842;2022-10-30T08:23:43;16.98;;;8.82;;
39020;SDS011;25188;51.958;5.842;2022-10-30T08:26:09;16.13;;;9.25;;
39020;SDS011;25188;51.958;5.842;2022-10-30T08:28:35;16.55;;;9.27;;
39020;SDS011;25188;51.958;5.842;2022-10-30T08:31:01;19.77;;;9.82;;
39020;SDS011;25188;51.958;5.842;2022-10-30T08:33:27;17.40;;;9.75;;
39020;SDS011;25188;51.958;5.842;2022-10-30T08:35:54;19.25;;;10.85;;
39020;SDS011;25188;51.958;5.842;2022-10-30T08:38:21;17.38;;;11.27;;
39020;SDS011;25188;51.958;5.842;2022-10-30T08:40:47;20.13;;;9.98;;
39020;SDS011;25188;51.958;5.842;2022-10-30T08:43:12;21.50;;;10.57;;
39020;SDS011;25188;51.958;5.842;2022-10-30T08:45:38;18.20;;;9.32;;
39020;SDS011;25188;51.958;5.842;2022-10-30T08:48:04;18.90;;;11.07;;
39020;SDS011;25188;51.958;5.842;2022-10-30T08:50:31;19.08;;;10.57;;
39020;SDS011;25188;51.958;5.842;2022-10-30T08:53:01;20.88;;;10.98;;
39020;SDS011;25188;51.958;5.842;2022-10-30T08:55:28;20.98;;;10.43;;
39020;SDS011;25188;51.958;5.842;2022-10-30T08:57:58;15.90;;;9.45;;
39020;SDS011;25188;51.958;5.842;2022-10-30T09:00:23;15.57;;;9.30;;
39020;SDS011;25188;51.958;5.842;2022-10-30T09:02:49;22.73;;;11.30;;
39020;SDS011;25188;51.958;5.842;2022-10-30T09:05:15;16.63;;;9.93;;
39020;SDS011;25188;51.958;5.842;2022-10-30T09:07:41;19.38;;;10.30;;
39020;SDS011;25188;51.958;5.842;2022-10-30T09:10:06;18.33;;;10.10;;
39020;SDS011;25188;51.958;5.842;2022-10-30T09:12:33;17.63;;;10.98;;
39020;SDS011;25188;51.958;5.842;2022-10-30T09:14:59;17.63;;;9.93;;
39020;SDS011;25188;51.958;5.842;2022-10-30T09:17:25;15.48;;;9.45;;
39020;SDS011;25188;51.958;5.842;2022-10-30T09:19:51;20.73;;;10.40;;
39020;SDS011;25188;51.958;5.842;2022-10-30T09:22:17;18.20;;;9.70;;
39020;SDS011;25188;51.958;5.842;2022-10-30T09:24:42;17.00;;;9.95;;
39020;SDS011;25188;51.958;5.842;2022-10-30T09:27:08;18.63;;;10.55;;
39020;SDS011;25188;51.958;5.842;2022-10-30T09:29:34;19.05;;;10.20;;
39020;SDS011;25188;51.958;5.842;2022-10-30T09:32:00;14.45;;;9.02;;
39020;SDS011;25188;51.958;5.842;2022-10-30T09:34:26;15.00;;;8.80;;
39020;SDS011;25188;51.958;5.842;2022-10-30T09:36:53;13.10;;;7.78;;
39020;SDS011;25188;51.958;5.842;2022-10-30T09:39:18;14.48;;;7.03;;
39020;SDS011;25188;51.958;5.842;2022-10-30T09:52:59;13.38;;;5.00;;
39020;SDS011;25188;51.958;5.842;2022-10-30T09:58:01;11.07;;;4.78;;
39020;SDS011;25188;51.958;5.842;2022-10-30T10:00:32;12.90;;;4.90;;
39020;SDS011;25188;51.958;5.842;2022-10-30T10:03:07;11.98;;;5.13;;
39020;SDS011;25188;51.958;5.842;2022-10-30T10:05:50;8.70;;;4.05;;
39020;SDS011;25188;51.958;5.842;2022-10-30T10:10:46;10.75;;;4.72;;
39020;SDS011;25188;51.958;5.842;2022-10-30T10:13:27;13.73;;;5.13;;
39020;SDS011;25188;51.958;5.842;2022-10-30T10:16:11;12.98;;;4.60;;
39020;SDS011;25188;51.958;5.842;2022-10-30T10:18:45;13.50;;;5.20;;
39020;SDS011;25188;51.958;5.842;2022-10-30T10:21:14;13.70;;;5.35;;
39020;SDS011;25188;51.958;5.842;2022-10-30T10:23:49;11.75;;;5.15;;
39020;SDS011;25188;51.958;5.842;2022-10-30T10:26:43;14.02;;;5.28;;
39020;SDS011;25188;51.958;5.842;2022-10-30T10:32:15;11.70;;;5.30;;
39020;SDS011;25188;51.958;5.842;2022-10-30T10:34:45;12.52;;;5.72;;
39020;SDS011;25188;51.958;5.842;2022-10-30T10:48:03;12.32;;;6.18;;
39020;SDS011;25188;51.958;5.842;2022-10-30T10:50:40;11.35;;;5.50;;
39020;SDS011;25188;51.958;5.842;2022-10-30T10:53:29;12.13;;;5.15;;
39020;SDS011;25188;51.958;5.842;2022-10-30T10:55:57;9.27;;;4.90;;
39020;SDS011;25188;51.958;5.842;2022-10-30T10:58:32;11.35;;;5.03;;
39020;SDS011;25188;51.958;5.842;2022-10-30T11:01:03;8.57;;;4.80;;
39020;SDS011;25188;51.958;5.842;2022-10-30T11:06:26;8.70;;;4.45;;
39020;SDS011;25188;51.958;5.842;2022-10-30T11:09:36;9.35;;;5.32;;
39020;SDS011;25188;51.958;5.842;2022-10-30T11:11:55;11.02;;;5.15;;
39020;SDS011;25188;51.958;5.842;2022-10-30T11:14:21;10.20;;;4.82;;
39020;SDS011;25188;51.958;5.842;2022-10-30T11:19:34;10.43;;;5.45;;
39020;SDS011;25188;51.958;5.842;2022-10-30T11:22:00;10.55;;;4.80;;
39020;SDS011;25188;51.958;5.842;2022-10-30T11:26:57;10.02;;;4.72;;
39020;SDS011;25188;51.958;5.842;2022-10-30T11:29:40;10.98;;;4.55;;
39020;SDS011;25188;51.958;5.842;2022-10-30T11:32:32;8.98;;;4.75;;
39020;SDS011;25188;51.958;5.842;2022-10-30T11:35:00;12.80;;;4.97;;
39020;SDS011;25188;51.958;5.842;2022-10-30T11:37:28;10.90;;;4.22;;
39020;SDS011;25188;51.958;5.842;2022-10-30T11:40:00;12.52;;;5.38;;
39020;SDS011;25188;51.958;5.842;2022-10-30T11:42:31;9.07;;;5.05;;
39020;SDS011;25188;51.958;5.842;2022-10-30T11:44:58;8.25;;;4.53;;
39020;SDS011;25188;51.958;5.842;2022-10-30T11:47:31;9.27;;;4.15;;
39020;SDS011;25188;51.958;5.842;2022-10-30T11:50:00;12.57;;;5.25;;
39020;SDS011;25188;51.958;5.842;2022-10-30T11:52:28;11.20;;;4.35;;
39020;SDS011;25188;51.958;5.842;2022-10-30T11:57:43;9.82;;;4.15;;
39020;SDS011;25188;51.958;5.842;2022-10-30T12:00:23;12.35;;;4.20;;
39020;SDS011;25188;51.958;5.842;2022-10-30T12:02:51;12.45;;;5.15;;
39020;SDS011;25188;51.958;5.842;2022-10-30T12:07:52;11.60;;;3.60;;
39020;SDS011;25188;51.958;5.842;2022-10-30T12:10:26;13.95;;;4.43;;
39020;SDS011;25188;51.958;5.842;2022-10-30T12:12:53;11.40;;;3.78;;
39020;SDS011;25188;51.958;5.842;2022-10-30T12:15:20;15.82;;;4.53;;
39020;SDS011;25188;51.958;5.842;2022-10-30T12:17:52;10.38;;;3.75;;
39020;SDS011;25188;51.958;5.842;2022-10-30T12:22:48;8.25;;;3.58;;
39020;SDS011;25188;51.958;5.842;2022-10-30T12:25:19;11.73;;;3.35;;
39020;SDS011;25188;51.958;5.842;2022-10-30T12:28:02;11.60;;;3.50;;
39020;SDS011;25188;51.958;5.842;2022-10-30T12:30:38;13.73;;;4.25;;
39020;SDS011;25188;51.958;5.842;2022-10-30T12:33:23;10.65;;;4.82;;
39020;SDS011;25188;51.958;5.842;2022-10-30T12:35:56;12.07;;;4.05;;
39020;SDS011;25188;51.958;5.842;2022-10-30T12:44:15;10.43;;;4.22;;
39020;SDS011;25188;51.958;5.842;2022-10-30T12:52:30;13.82;;;4.35;;
39020;SDS011;25188;51.958;5.842;2022-10-30T12:55:20;10.73;;;4.32;;
39020;SDS011;25188;51.958;5.842;2022-10-30T13:01:05;14.43;;;4.55;;
39020;SDS011;25188;51.958;5.842;2022-10-30T13:03:43;12.30;;;4.63;;
39020;SDS011;25188;51.958;5.842;2022-10-30T13:09:43;11.23;;;4.82;;
39020;SDS011;25188;51.958;5.842;2022-10-30T13:12:28;12.70;;;4.63;;
39020;SDS011;25188;51.958;5.842;2022-10-30T13:15:04;14.88;;;4.70;;
39020;SDS011;25188;51.958;5.842;2022-10-30T13:17:33;13.90;;;5.88;;
39020;SDS011;25188;51.958;5.842;2022-10-30T13:19:59;12.98;;;5.30;;
39020;SDS011;25188;51.958;5.842;2022-10-30T13:25:05;14.65;;;5.25;;
39020;SDS011;25188;51.958;5.842;2022-10-30T13:27:52;11.70;;;5.35;;
39020;SDS011;25188;51.958;5.842;2022-10-30T13:30:24;13.48;;;5.60;;
39020;SDS011;25188;51.958;5.842;2022-10-30T13:36:02;16.58;;;4.57;;
39020;SDS011;25188;51.958;5.842;2022-10-30T13:44:00;12.32;;;4.35;;
39020;SDS011;25188;51.958;5.842;2022-10-30T13:46:54;11.02;;;4.35;;
39020;SDS011;25188;51.958;5.842;2022-10-30T13:55:04;10.52;;;4.30;;
39020;SDS011;25188;51.958;5.842;2022-10-30T14:00:49;12.32;;;4.43;;
39020;SDS011;25188;51.958;5.842;2022-10-30T14:03:26;13.80;;;4.72;;
39020;SDS011;25188;51.958;5.842;2022-10-30T14:08:40;12.85;;;5.15;;
39020;SDS011;25188;51.958;5.842;2022-10-30T14:11:22;11.77;;;4.53;;
39020;SDS011;25188;51.958;5.842;2022-10-30T14:16:40;11.65;;;3.95;;
39020;SDS011;25188;51.958;5.842;2022-10-30T14:19:14;11.05;;;4.80;;
39020;SDS011;25188;51.958;5.842;2022-10-30T14:21:50;13.02;;;4.75;;
39020;SDS011;25188;51.958;5.842;2022-10-30T14:31:59;17.00;;;5.88;;
39020;SDS011;25188;51.958;5.842;2022-10-30T14:37:10;13.75;;;5.45;;
39020;SDS011;25188;51.958;5.842;2022-10-30T14:39:38;12.32;;;5.22;;
39020;SDS011;25188;51.958;5.842;2022-10-30T14:58:39;20.27;;;7.30;;
39020;SDS011;25188;51.958;5.842;2022-10-30T15:04:05;14.50;;;6.22;;
39020;SDS011;25188;51.958;5.842;2022-10-30T15:15:00;10.57;;;6.38;;
39020;SDS011;25188;51.958;5.842;2022-10-30T15:20:00;15.48;;;8.30;;
39020;SDS011;25188;51.958;5.842;2022-10-30T15:22:29;14.43;;;9.00;;
39020;SDS011;25188;51.958;5.842;2022-10-30T15:24:57;15.18;;;9.00;;
39020;SDS011;25188;51.958;5.842;2022-10-30T15:27:25;13.73;;;8.63;;
39020;SDS011;25188;51.958;5.842;2022-10-30T15:29:54;18.20;;;9.60;;
39020;SDS011;25188;51.958;5.842;2022-10-30T15:32:23;23.35;;;9.32;;
39020;SDS011;25188;51.958;5.842;2022-10-30T15:34:56;19.25;;;8.93;;
39020;SDS011;25188;51.958;5.842;2022-10-30T15:37:27;18.40;;;9.15;;
39020;SDS011;25188;51.958;5.842;2022-10-30T15:42:40;11.48;;;8.68;;
39020;SDS011;25188;51.958;5.842;2022-10-30T15:45:17;16.48;;;9.63;;
39020;SDS011;25188;51.958;5.842;2022-10-30T15:47:46;13.77;;;8.30;;
39020;SDS011;25188;51.958;5.842;2022-10-30T15:50:15;20.80;;;9.80;;
39020;SDS011;25188;51.958;5.842;2022-10-30T15:52:41;19.83;;;8.90;;
39020;SDS011;25188;51.958;5.842;2022-10-30T15:55:08;19.50;;;10.63;;
39020;SDS011;25188;51.958;5.842;2022-10-30T15:57:46;22.45;;;11.13;;
39020;SDS011;25188;51.958;5.842;2022-10-30T16:05:50;17.55;;;9.30;;
39020;SDS011;25188;51.958;5.842;2022-10-30T16:08:37;17.48;;;9.23;;
39020;SDS011;25188;51.958;5.842;2022-10-30T16:13:57;20.83;;;11.18;;
39020;SDS011;25188;51.958;5.842;2022-10-30T16:17:07;19.15;;;10.60;;
39020;SDS011;25188;51.958;5.842;2022-10-30T16:19:46;21.02;;;11.00;;
39020;SDS011;25188;51.958;5.842;2022-10-30T16:22:32;23.15;;;10.93;;
39020;SDS011;25188;51.958;5.842;2022-10-30T16:25:07;18.38;;;9.50;;
39020;SDS011;25188;51.958;5.842;2022-10-30T16:31:02;17.90;;;10.50;;
39020;SDS011;25188;51.958;5.842;2022-10-30T16:33:32;22.70;;;11.52;;
39020;SDS011;25188;51.958;5.842;2022-10-30T16:36:10;17.05;;;10.88;;
39020;SDS011;25188;51.958;5.842;2022-10-30T16:38:48;19.23;;;11.52;;
39020;SDS011;25188;51.958;5.842;2022-10-30T16:41:15;17.93;;;11.00;;
39020;SDS011;25188;51.958;5.842;2022-10-30T16:46:47;22.60;;;11.57;;
39020;SDS011;25188;51.958;5.842;2022-10-30T16:49:34;22.80;;;11.20;;
39020;SDS011;25188;51.958;5.842;2022-10-30T16:52:05;21.45;;;11.88;;
39020;SDS011;25188;51.958;5.842;2022-10-30T16:54:39;19.48;;;11.57;;
39020;SDS011;25188;51.958;5.842;2022-10-30T16:57:29;25.83;;;11.70;;
39020;SDS011;25188;51.958;5.842;2022-10-30T16:59:56;16.50;;;10.40;;
39020;SDS011;25188;51.958;5.842;2022-10-30T17:02:33;21.23;;;11.43;;
39020;SDS011;25188;51.958;5.842;2022-10-30T17:11:17;21.13;;;9.32;;
39020;SDS011;25188;51.958;5.842;2022-10-30T17:16:17;18.48;;;8.50;;
39020;SDS011;25188;51.958;5.842;2022-10-30T17:22:00;17.23;;;9.35;;
39020;SDS011;25188;51.958;5.842;2022-10-30T17:24:32;12.63;;;7.30;;
39020;SDS011;25188;51.958;5.842;2022-10-30T17:27:04;17.42;;;8.85;;
39020;SDS011;25188;51.958;5.842;2022-10-30T17:32:39;20.77;;;8.73;;
39020;SDS011;25188;51.958;5.842;2022-10-30T17:35:16;14.15;;;8.38;;
39020;SDS011;25188;51.958;5.842;2022-10-30T17:44:20;17.98;;;7.78;;
39020;SDS011;25188;51.958;5.842;2022-10-30T17:46:50;15.50;;;8.07;;
39020;SDS011;25188;51.958;5.842;2022-10-30T17:51:56;15.05;;;7.93;;
39020;SDS011;25188;51.958;5.842;2022-10-30T17:54:22;14.80;;;7.10;;